Hovedside
METAR-TAF:

METAR-TAF

Lufthavner :

Vereeniging, Sør-Afrika

breddegrad: 26-34-29S, lengdegrad: 027-57-45E, høyde over havet: 1483 m

Gjeldene værobservasjon

Denne rapporten ble laget for 55 minutter siden, klokken 03:00 UTC
Flau vind
Temperatur 1°C
Luftfuktighet 93%
Trykk 1031 hPa

METAR: FAVV 140300Z AUTO 00000KT //// // ////// 01/M00 Q1031

Tid: 05:55 (03:55 UTC)


TAF: fraværende

Værobservasjoner og værvarsel for over 4000 flyplasser (METAR- og TAF-rapporter).

Tilgjengelige stasjoner er representert av de røde og gule prikkene på kartet.

Hold musepekeren over prikken for å se navnet på stasjonen.

Klikk så for å se værobservasjoner og -varsler.

For å forandre kartet kan du klikke på den grønne knappen med svart kryss for å zoome inn, på den grønne knappen med strek for å zoome ut, eller på de grønne pilene for å se tilstøtende kart.


METAR-TAF: